Time;durP1;ratioP1;P1;durP2;ratioP2;P2;SDS_P1;SDS_P2;PMS_P1;PMS_P2;Temp;Humidity;BMP_temperature;BMP_pressure;BME280_temperature;BME280_humidity;BME280_pressure;Samples;Min_cycle;Max_cycle;Signal;HPM_P1;HPM_P2
2021/01/16 00:00:29;;;;;;;3.97;3.30;;;20.90;39.80;;;;;;5016031;28;20033;-47
2021/01/16 00:02:55;;;;;;;4.10;3.28;;;20.90;39.80;;;;;;5016095;28;20034;-49
2021/01/16 00:05:23;;;;;;;3.45;3.15;;;20.80;39.70;;;;;;5015314;28;20380;-58
2021/01/16 00:08:02;;;;;;;5.10;3.33;;;20.80;39.70;;;;;;5015857;28;20057;-53
2021/01/16 00:10:28;;;;;;;3.85;2.75;;;20.80;39.70;;;;;;5015904;28;20478;-47
2021/01/16 00:12:54;;;;;;;3.05;2.72;;;20.80;39.70;;;;;;5016163;28;20034;-52
2021/01/16 00:15:19;;;;;;;4.10;3.40;;;20.80;39.70;;;;;;5015961;28;20053;-51
2021/01/16 00:17:45;;;;;;;3.95;3.15;;;20.70;39.60;;;;;;5016271;28;20034;-46
2021/01/16 00:20:11;;;;;;;4.97;3.05;;;20.70;39.60;;;;;;5015770;28;20026;-50
2021/01/16 00:22:50;;;;;;;3.70;2.90;;;20.70;39.60;;;;;;5015709;28;20045;-47
2021/01/16 00:25:16;;;;;;;5.05;2.92;;;20.70;39.60;;;;;;5015372;28;20030;-51
2021/01/16 00:27:42;;;;;;;3.95;2.90;;;20.60;39.60;;;;;;5015932;28;20116;-49
2021/01/16 00:30:09;;;;;;;4.78;2.78;;;20.60;39.60;;;;;;5015652;28;20030;-51
2021/01/16 00:32:36;;;;;;;4.13;3.10;;;20.60;39.60;;;;;;5015615;28;20057;-49
2021/01/16 00:35:07;;;;;;;4.60;2.85;;;20.50;39.50;;;;;;5015686;28;20041;-52
2021/01/16 00:37:34;;;;;;;3.25;2.95;;;20.50;39.50;;;;;;5015354;28;20452;-52
2021/01/16 00:40:00;;;;;;;3.72;2.90;;;20.50;39.50;;;;;;5016041;28;20026;-49
2021/01/16 00:42:25;;;;;;;3.10;2.60;;;20.50;39.40;;;;;;5015495;28;20041;-49
2021/01/16 00:44:51;;;;;;;3.97;3.08;;;20.50;39.40;;;;;;5015335;28;20034;-52
2021/01/16 00:47:16;;;;;;;3.17;2.85;;;20.50;39.50;;;;;;5015503;28;20077;-55
2021/01/16 00:49:42;;;;;;;4.22;2.80;;;20.40;39.40;;;;;;5015366;28;20026;-53
2021/01/16 00:52:08;;;;;;;3.55;3.10;;;20.40;39.40;;;;;;5015288;28;20038;-49
2021/01/16 00:54:33;;;;;;;2.88;2.58;;;20.40;39.40;;;;;;5015465;28;20117;-49
2021/01/16 00:56:59;;;;;;;4.25;2.67;;;20.40;39.40;;;;;;5015123;28;20026;-51
2021/01/16 00:59:24;;;;;;;3.60;2.90;;;20.40;39.30;;;;;;5015400;28;20129;-50
2021/01/16 01:01:50;;;;;;;4.05;2.72;;;20.30;39.30;;;;;;5014943;28;20034;-51
2021/01/16 01:04:15;;;;;;;3.33;2.60;;;20.30;39.30;;;;;;4998096;28;20069;-47
2021/01/16 01:06:41;;;;;;;3.42;2.92;;;20.30;39.30;;;;;;5015120;28;20092;-53
2021/01/16 01:09:06;;;;;;;3.10;2.75;;;20.30;39.30;;;;;;5014900;28;20037;-53
2021/01/16 01:11:31;;;;;;;2.83;2.60;;;20.30;39.30;;;;;;5016711;28;20044;-55
2021/01/16 01:13:57;;;;;;;2.58;2.30;;;20.20;39.20;;;;;;5021684;28;20099;-52
2021/01/16 01:16:23;;;;;;;2.88;2.55;;;20.20;39.20;;;;;;5021280;28;20034;-49
2021/01/16 01:18:48;;;;;;;3.35;2.65;;;20.20;39.20;;;;;;5021608;28;20045;-49
2021/01/16 01:21:14;;;;;;;3.28;2.85;;;20.20;39.20;;;;;;5021473;28;20038;-52
2021/01/16 01:23:40;;;;;;;3.25;2.72;;;20.20;39.20;;;;;;5021243;28;20065;-50
2021/01/16 01:26:05;;;;;;;2.80;2.22;;;20.20;39.20;;;;;;5004067;28;20053;-49
2021/01/16 01:28:31;;;;;;;4.43;2.53;;;20.10;39.20;;;;;;5021873;28;20113;-53
2021/01/16 01:30:56;;;;;;;3.47;2.28;;;20.10;39.10;;;;;;5021193;28;20030;-48
2021/01/16 01:33:22;;;;;;;3.25;2.70;;;20.10;39.20;;;;;;5021461;28;20053;-51
2021/01/16 01:35:47;;;;;;;3.05;2.63;;;20.10;39.20;;;;;;5021466;28;20157;-49
2021/01/16 01:38:17;;;;;;;2.67;2.40;;;20.10;39.10;;;;;;5021466;28;20396;-54
2021/01/16 01:40:43;;;;;;;3.03;2.50;;;20.10;39.10;;;;;;5021370;28;20034;-50
2021/01/16 01:43:08;;;;;;;4.22;2.63;;;20.10;39.10;;;;;;5021476;28;20038;-55
2021/01/16 01:45:34;;;;;;;3.10;2.53;;;20.00;39.10;;;;;;5021221;28;20073;-51
2021/01/16 01:48:01;;;;;;;3.72;2.25;;;20.00;39.00;;;;;;5021369;28;20057;-51
2021/01/16 01:50:28;;;;;;;3.05;2.50;;;20.00;39.00;;;;;;5021298;28;20045;-50
2021/01/16 01:52:55;;;;;;;3.22;2.53;;;20.00;39.00;;;;;;5020810;28;20468;-52
2021/01/16 01:55:22;;;;;;;2.40;2.20;;;20.00;39.00;;;;;;5021075;28;20112;-54
2021/01/16 01:57:51;;;;;;;3.95;2.78;;;20.00;39.00;;;;;;5021079;28;20041;-55
2021/01/16 02:00:17;;;;;;;3.65;2.90;;;20.00;39.00;;;;;;5021640;28;20404;-48
2021/01/16 02:02:44;;;;;;;3.83;3.03;;;19.90;39.00;;;;;;5020990;28;20136;-50
2021/01/16 02:05:11;;;;;;;2.65;2.40;;;19.90;38.90;;;;;;5020809;28;20044;-50
2021/01/16 02:07:39;;;;;;;2.65;2.45;;;19.90;38.90;;;;;;5021186;28;20030;-50
2021/01/16 02:10:11;;;;;;;3.78;2.47;;;19.90;38.90;;;;;;5020835;28;20552;-50
2021/01/16 02:12:40;;;;;;;2.90;2.47;;;19.90;38.90;;;;;;5021109;28;20033;-51
2021/01/16 02:15:27;;;;;;;2.60;2.40;;;19.90;38.90;;;;;;5021119;28;20369;-50
2021/01/16 02:18:02;;;;;;;3.00;2.58;;;19.80;38.90;;;;;;5020559;28;20472;-50
2021/01/16 02:20:31;;;;;;;2.88;2.58;;;19.80;38.90;;;;;;5021035;28;20333;-49
2021/01/16 02:23:06;;;;;;;2.92;2.30;;;19.80;38.90;;;;;;5019431;28;20081;-58
2021/01/16 02:25:40;;;;;;;3.25;2.67;;;19.80;38.90;;;;;;5017780;28;20477;-49
2021/01/16 02:28:14;;;;;;;2.75;2.38;;;19.80;38.90;;;;;;5017837;28;20049;-54
2021/01/16 02:30:41;;;;;;;2.80;2.50;;;19.80;38.90;;;;;;5017747;28;20055;-55
2021/01/16 02:33:13;;;;;;;3.25;2.70;;;19.70;38.80;;;;;;5017724;28;20123;-48
2021/01/16 02:35:56;;;;;;;2.58;2.10;;;19.70;38.80;;;;;;5018012;28;20099;-53
2021/01/16 02:38:51;;;;;;;3.30;2.40;;;19.70;38.80;;;;;;5017967;28;20045;-48
2021/01/16 02:41:31;;;;;;;2.58;2.22;;;19.70;38.80;;;;;;5017172;28;20034;-48
2021/01/16 02:44:04;;;;;;;3.33;2.33;;;19.70;38.80;;;;;;5017609;28;20052;-52
2021/01/16 02:46:38;;;;;;;3.63;2.67;;;19.70;38.80;;;;;;5017802;28;20069;-50
2021/01/16 02:49:20;;;;;;;2.50;2.30;;;19.60;38.80;;;;;;5017340;28;20048;-48
2021/01/16 02:52:12;;;;;;;3.33;2.10;;;19.60;38.70;;;;;;5017405;28;20514;-50
2021/01/16 02:54:39;;;;;;;3.42;2.47;;;19.60;38.70;;;;;;5017084;28;20084;-47
2021/01/16 02:57:07;;;;;;;2.78;2.45;;;19.60;38.70;;;;;;5017410;28;20361;-51
2021/01/16 02:59:43;;;;;;;2.63;2.42;;;19.60;38.70;;;;;;5017102;28;20034;-51
2021/01/16 03:02:14;;;;;;;2.63;2.42;;;19.60;38.80;;;;;;5017231;28;20065;-50
2021/01/16 03:04:40;;;;;;;4.18;2.35;;;19.60;38.70;;;;;;5017458;28;20096;-53
2021/01/16 03:07:07;;;;;;;3.28;2.40;;;19.50;38.70;;;;;;5017251;28;20042;-50
2021/01/16 03:09:34;;;;;;;3.15;2.25;;;19.50;38.70;;;;;;5017013;28;20041;-46
2021/01/16 03:12:00;;;;;;;2.92;2.63;;;19.50;38.70;;;;;;5016817;28;20360;-51
2021/01/16 03:14:31;;;;;;;2.60;2.33;;;19.50;38.70;;;;;;5017283;28;20099;-50
2021/01/16 03:17:14;;;;;;;2.33;2.13;;;19.50;38.70;;;;;;5017129;28;20038;-51
2021/01/16 03:19:43;;;;;;;3.47;2.60;;;19.50;38.60;;;;;;5016946;28;20050;-52
2021/01/16 03:22:35;;;;;;;2.80;2.40;;;19.50;38.60;;;;;;5016753;28;20045;-53
2021/01/16 03:25:00;;;;;;;2.33;2.10;;;19.50;38.60;;;;;;5012823;28;20437;-54
2021/01/16 03:27:26;;;;;;;3.03;2.38;;;19.40;38.60;;;;;;5016678;28;20050;-47
2021/01/16 03:29:55;;;;;;;2.78;2.30;;;19.40;38.60;;;;;;5016733;28;20066;-54
2021/01/16 03:32:21;;;;;;;2.60;2.35;;;19.40;38.60;;;;;;5016425;28;20565;-50
2021/01/16 03:34:48;;;;;;;3.08;2.38;;;19.40;38.60;;;;;;5016046;28;20042;-49
2021/01/16 03:37:15;;;;;;;3.25;2.30;;;19.40;38.60;;;;;;5016146;28;20360;-53
2021/01/16 03:39:40;;;;;;;2.88;2.20;;;19.40;38.60;;;;;;5016486;28;20038;-56
2021/01/16 03:42:07;;;;;;;2.85;2.35;;;19.40;38.60;;;;;;5016424;28;20444;-49
2021/01/16 03:44:33;;;;;;;2.80;2.30;;;19.40;38.60;;;;;;5016428;28;20038;-47
2021/01/16 03:46:59;;;;;;;2.63;2.30;;;19.30;38.50;;;;;;5016362;28;20105;-47
2021/01/16 03:49:24;;;;;;;2.40;2.20;;;19.30;38.50;;;;;;5016056;28;20112;-46
2021/01/16 03:51:50;;;;;;;2.42;2.13;;;19.30;38.50;;;;;;5016416;28;20034;-50
2021/01/16 03:54:15;;;;;;;2.55;2.17;;;19.30;38.50;;;;;;5016314;28;20064;-47
2021/01/16 03:56:41;;;;;;;2.63;2.15;;;19.30;38.50;;;;;;5015912;28;20120;-48
2021/01/16 03:59:07;;;;;;;3.05;2.50;;;19.30;38.50;;;;;;5016148;28;20065;-50
2021/01/16 04:01:34;;;;;;;2.85;2.20;;;19.30;38.50;;;;;;5016108;28;20034;-53
2021/01/16 04:04:00;;;;;;;2.65;2.30;;;19.20;38.40;;;;;;5016080;28;20092;-49
2021/01/16 04:06:25;;;;;;;2.80;2.05;;;19.20;38.40;;;;;;5016063;28;20120;-53
2021/01/16 04:08:51;;;;;;;2.63;2.25;;;19.30;38.50;;;;;;5015635;28;20029;-51
2021/01/16 04:11:17;;;;;;;3.65;2.30;;;19.20;38.40;;;;;;5015567;28;20038;-52
2021/01/16 04:13:42;;;;;;;2.40;2.08;;;19.20;38.40;;;;;;5015777;28;20030;-48
2021/01/16 04:16:08;;;;;;;2.50;2.30;;;19.20;38.40;;;;;;5016250;28;20034;-50
2021/01/16 04:18:34;;;;;;;2.55;2.10;;;19.20;38.40;;;;;;5016015;28;20109;-55
2021/01/16 04:21:01;;;;;;;2.58;2.22;;;19.20;38.40;;;;;;5015666;28;20445;-48
2021/01/16 04:23:26;;;;;;;2.75;2.47;;;19.20;38.40;;;;;;5015710;28;20034;-49
2021/01/16 04:25:52;;;;;;;2.55;2.17;;;19.20;38.40;;;;;;5015601;28;20048;-49
2021/01/16 04:28:18;;;;;;;2.92;2.25;;;19.10;38.40;;;;;;5015682;28;20041;-53
2021/01/16 04:30:43;;;;;;;2.50;2.30;;;19.10;38.40;;;;;;5015827;28;20034;-52
2021/01/16 04:33:09;;;;;;;2.72;2.20;;;19.10;38.40;;;;;;5015931;28;20503;-47
2021/01/16 04:35:35;;;;;;;2.80;2.50;;;19.10;38.40;;;;;;5015433;28;20058;-48
2021/01/16 04:38:01;;;;;;;3.47;2.22;;;19.10;38.40;;;;;;5015593;28;20092;-53
2021/01/16 04:40:28;;;;;;;2.55;2.17;;;19.10;38.40;;;;;;5015726;28;20034;-52
2021/01/16 04:42:55;;;;;;;2.88;2.33;;;19.10;38.40;;;;;;5015718;28;20026;-54
2021/01/16 04:45:20;;;;;;;2.83;2.17;;;19.10;38.40;;;;;;5015476;28;20037;-50
2021/01/16 04:47:47;;;;;;;3.38;2.67;;;19.10;38.40;;;;;;5014293;28;20045;-51
2021/01/16 04:50:15;;;;;;;2.45;2.22;;;19.10;38.40;;;;;;5015007;28;20026;-55
2021/01/16 04:52:42;;;;;;;2.78;2.30;;;19.00;38.30;;;;;;5015447;28;20029;-47
2021/01/16 04:55:10;;;;;;;2.17;1.98;;;19.00;38.30;;;;;;5015229;28;20088;-51
2021/01/16 04:57:37;;;;;;;2.72;2.22;;;19.00;38.30;;;;;;5014911;28;20456;-51
2021/01/16 05:00:12;;;;;;;2.40;2.05;;;19.00;38.30;;;;;;5015220;28;20352;-53
2021/01/16 05:02:40;;;;;;;2.20;2.00;;;19.00;38.30;;;;;;5014995;28;20062;-50
2021/01/16 05:05:08;;;;;;;2.60;2.40;;;19.00;38.30;;;;;;5015261;28;20034;-55
2021/01/16 05:07:34;;;;;;;2.25;1.85;;;19.00;38.30;;;;;;4997810;28;20360;-50
2021/01/16 05:10:01;;;;;;;2.15;1.95;;;19.00;38.30;;;;;;5014701;28;20034;-47
2021/01/16 05:12:51;;;;;;;2.42;1.80;;;18.90;38.30;;;;;;5015059;28;20034;-52
2021/01/16 05:15:22;;;;;;;3.03;2.20;;;18.90;38.30;;;;;;5014890;28;20069;-52
2021/01/16 05:17:57;;;;;;;2.70;2.30;;;18.90;38.30;;;;;;5014815;28;20030;-53
2021/01/16 05:20:23;;;;;;;2.38;2.17;;;18.90;38.20;;;;;;5014717;28;20125;-49
2021/01/16 05:22:49;;;;;;;2.50;2.03;;;18.90;38.30;;;;;;5014725;28;20109;-48
2021/01/16 05:25:15;;;;;;;2.35;2.15;;;18.90;38.30;;;;;;5014915;28;20116;-50
2021/01/16 05:27:51;;;;;;;2.40;2.10;;;18.90;38.90;;;;;;5014767;28;20038;-50
2021/01/16 05:30:17;;;;;;;2.75;2.33;;;18.90;38.30;;;;;;5014918;28;20073;-48
2021/01/16 05:32:42;;;;;;;2.63;2.20;;;18.90;38.30;;;;;;5014866;28;20077;-49
2021/01/16 05:35:19;;;;;;;2.25;2.05;;;18.90;38.30;;;;;;5015213;28;20041;-55
2021/01/16 05:37:46;;;;;;;2.25;2.05;;;18.90;38.30;;;;;;5014885;28;20030;-50
2021/01/16 05:40:12;;;;;;;2.75;2.17;;;18.80;38.20;;;;;;5013568;28;20439;-51
2021/01/16 05:42:39;;;;;;;2.40;2.20;;;18.80;38.20;;;;;;5014899;28;20026;-53
2021/01/16 05:45:07;;;;;;;2.90;2.15;;;18.80;38.20;;;;;;5014856;28;20109;-50
2021/01/16 05:47:34;;;;;;;2.60;2.10;;;18.80;38.20;;;;;;5014650;28;20099;-48
2021/01/16 05:50:00;;;;;;;2.80;2.20;;;18.80;38.20;;;;;;5014865;28;20432;-53
2021/01/16 05:52:27;;;;;;;2.88;2.58;;;18.80;38.20;;;;;;5014433;28;20038;-58
2021/01/16 05:55:00;;;;;;;2.38;2.15;;;18.80;38.20;;;;;;5014464;28;20364;-48
2021/01/16 05:57:26;;;;;;;3.10;2.37;;;18.80;38.30;;;;;;5014616;28;20487;-53
2021/01/16 05:59:58;;;;;;;2.35;2.05;;;18.80;38.20;;;;;;5018500;28;20040;-54
2021/01/16 06:02:29;;;;;;;2.45;2.03;;;18.80;38.90;;;;;;5018565;28;20069;-54
2021/01/16 06:04:55;;;;;;;2.58;2.38;;;18.70;38.20;;;;;;5018040;28;20042;-51
2021/01/16 06:07:25;;;;;;;2.85;2.00;;;18.70;38.90;;;;;;5017517;28;20030;-52
2021/01/16 06:09:52;;;;;;;2.33;2.13;;;18.70;38.20;;;;;;5018402;28;20110;-50
2021/01/16 06:12:22;;;;;;;2.70;2.13;;;18.70;38.20;;;;;;5017651;28;20030;-51
2021/01/16 06:14:49;;;;;;;2.00;1.80;;;18.70;38.20;;;;;;5017771;28;20389;-51
2021/01/16 06:17:17;;;;;;;2.53;2.08;;;18.70;38.20;;;;;;5018398;28;20120;-51
2021/01/16 06:19:49;;;;;;;2.13;1.92;;;18.70;38.20;;;;;;5017895;28;20038;-53
2021/01/16 06:22:17;;;;;;;2.20;2.00;;;18.70;38.20;;;;;;5017897;28;20042;-53
2021/01/16 06:24:48;;;;;;;2.75;1.92;;;18.70;38.20;;;;;;5017799;28;20333;-52
2021/01/16 06:27:22;;;;;;;2.35;2.15;;;18.60;38.20;;;;;;5017666;28;20045;-52
2021/01/16 06:29:58;;;;;;;2.33;2.05;;;18.60;38.20;;;;;;5017827;28;20423;-55
2021/01/16 06:32:25;;;;;;;3.05;2.00;;;18.60;38.10;;;;;;5017069;28;20037;-54
2021/01/16 06:35:09;;;;;;;2.38;2.15;;;18.60;38.20;;;;;;5018221;28;20030;-52
2021/01/16 06:37:50;;;;;;;2.28;1.90;;;18.60;38.20;;;;;;5017721;28;20025;-55
2021/01/16 06:40:31;;;;;;;2.50;2.25;;;18.60;38.20;;;;;;5017617;28;20112;-48
2021/01/16 06:42:57;;;;;;;2.38;2.17;;;18.60;38.20;;;;;;5017382;28;20500;-54
2021/01/16 06:45:25;;;;;;;2.45;2.20;;;18.60;38.20;;;;;;5017585;28;20068;-57
2021/01/16 06:47:59;;;;;;;2.17;1.98;;;18.50;38.10;;;;;;5017168;28;20113;-49
2021/01/16 06:50:25;;;;;;;2.88;1.90;;;18.60;38.20;;;;;;5017232;28;20423;-52
2021/01/16 06:52:51;;;;;;;2.83;2.20;;;18.50;38.10;;;;;;5016972;28;20033;-53
2021/01/16 06:55:18;;;;;;;3.60;2.35;;;18.60;38.20;;;;;;5017385;28;20122;-51
2021/01/16 06:57:44;;;;;;;2.75;2.30;;;18.50;38.20;;;;;;5017385;28;20465;-54
2021/01/16 07:00:11;;;;;;;3.45;2.08;;;18.50;38.10;;;;;;5017267;28;20076;-53
2021/01/16 07:02:37;;;;;;;2.47;2.05;;;18.50;38.10;;;;;;5017558;28;20061;-55
2021/01/16 07:05:06;;;;;;;2.00;1.80;;;18.50;38.10;;;;;;5016873;28;20441;-50
2021/01/16 07:07:37;;;;;;;2.50;2.00;;;18.50;38.10;;;;;;4999648;28;20364;-55
2021/01/16 07:10:08;;;;;;;2.67;2.13;;;18.50;38.10;;;;;;5015903;28;20038;-56
2021/01/16 07:12:35;;;;;;;2.80;2.20;;;18.50;38.20;;;;;;5017427;28;20334;-53
2021/01/16 07:15:03;;;;;;;2.40;1.75;;;18.50;38.10;;;;;;5017018;28;20030;-55
2021/01/16 07:17:31;;;;;;;2.60;2.20;;;18.50;38.10;;;;;;5016928;28;20061;-53
2021/01/16 07:19:58;;;;;;;2.60;2.10;;;18.40;38.10;;;;;;5016710;28;20029;-50
2021/01/16 07:22:31;;;;;;;4.45;2.05;;;18.50;38.10;;;;;;5016617;28;20036;-51
2021/01/16 07:25:00;;;;;;;2.40;2.05;;;18.40;38.10;;;;;;5016737;28;20038;-55
2021/01/16 07:27:26;;;;;;;4.20;2.45;;;18.40;38.10;;;;;;5016357;28;20077;-55
2021/01/16 07:29:56;;;;;;;2.53;2.22;;;18.40;38.10;;;;;;5016735;28;20022;-52
2021/01/16 07:32:35;;;;;;;2.05;1.83;;;18.40;38.10;;;;;;5016625;28;20022;-52
2021/01/16 07:35:02;;;;;;;2.25;2.05;;;18.40;38.10;;;;;;5016222;28;20038;-54
2021/01/16 07:37:30;;;;;;;2.17;1.98;;;18.40;38.10;;;;;;5016503;28;20030;-57
2021/01/16 07:39:57;;;;;;;2.60;2.20;;;18.40;38.20;;;;;;5016196;28;20396;-49
2021/01/16 07:42:25;;;;;;;1.98;1.85;;;18.40;38.10;;;;;;5016459;28;20049;-53
2021/01/16 07:45:09;;;;;;;2.45;2.25;;;18.40;38.10;;;;;;5016453;28;20069;-49
2021/01/16 07:47:38;;;;;;;;;;;18.40;38.10;;;;;;5016594;28;20118;-53
2021/01/16 07:50:15;;;;;;;2.38;2.05;;;18.40;38.10;;;;;;5016387;28;19956;-52
2021/01/16 07:52:43;;;;;;;2.50;2.08;;;18.30;38.10;;;;;;5016185;28;20030;-52
2021/01/16 07:55:09;;;;;;;2.35;2.13;;;18.30;38.10;;;;;;5016357;28;20042;-52
2021/01/16 07:57:35;;;;;;;2.08;1.88;;;18.30;38.20;;;;;;5016515;28;20352;-51
2021/01/16 08:00:05;;;;;;;2.30;2.10;;;18.30;38.20;;;;;;5015996;28;20034;-52
2021/01/16 08:02:34;;;;;;;2.55;2.30;;;18.30;38.20;;;;;;5015932;28;20029;-49
2021/01/16 08:05:07;;;;;;;2.30;2.10;;;18.30;38.20;;;;;;5015391;28;20391;-50
2021/01/16 08:08:03;;;;;;;2.50;2.30;;;18.30;38.20;;;;;;5015825;28;20045;-49
2021/01/16 08:10:29;;;;;;;2.65;2.20;;;18.30;38.20;;;;;;5015664;28;20030;-52
2021/01/16 08:12:59;;;;;;;2.83;2.10;;;18.20;38.10;;;;;;5016002;28;20093;-53
2021/01/16 08:15:32;;;;;;;3.22;2.20;;;18.20;38.10;;;;;;5016366;28;20085;-52
2021/01/16 08:18:03;;;;;;;2.33;2.13;;;18.20;38.10;;;;;;5016019;28;20034;-47
2021/01/16 08:20:35;;;;;;;2.33;2.08;;;18.20;38.10;;;;;;5015611;28;20052;-50
2021/01/16 08:23:03;;;;;;;2.90;2.00;;;18.30;38.20;;;;;;5014644;28;20044;-53
2021/01/16 08:25:30;;;;;;;2.83;2.60;;;18.20;38.20;;;;;;5015103;28;20364;-51
2021/01/16 08:27:58;;;;;;;3.03;2.30;;;18.20;38.20;;;;;;5015315;28;20030;-55
2021/01/16 08:30:25;;;;;;;2.78;2.22;;;18.20;38.20;;;;;;5015626;28;20076;-52
2021/01/16 08:33:05;;;;;;;2.58;2.10;;;18.20;38.10;;;;;;5015674;28;20132;-53
2021/01/16 08:35:42;;;;;;;2.40;2.20;;;18.20;38.10;;;;;;5015134;28;20038;-52
2021/01/16 08:38:17;;;;;;;2.80;2.00;;;18.20;38.20;;;;;;5015542;28;20062;-52
2021/01/16 08:40:50;;;;;;;3.05;2.20;;;18.20;38.20;;;;;;5015367;28;20080;-50
2021/01/16 08:43:27;;;;;;;2.63;2.40;;;18.20;38.20;;;;;;5014991;28;20441;-52
2021/01/16 08:46:05;;;;;;;1.95;1.85;;;18.10;38.10;;;;;;5015072;28;20064;-50
2021/01/16 08:48:30;;;;;;;2.78;2.38;;;18.10;38.10;;;;;;5015362;28;20034;-48
2021/01/16 08:50:56;;;;;;;2.45;2.13;;;18.20;38.20;;;;;;5015402;28;20034;-49
2021/01/16 08:53:21;;;;;;;2.10;1.80;;;18.20;38.20;;;;;;5015344;28;20424;-52
2021/01/16 08:55:47;;;;;;;4.05;2.13;;;18.10;38.10;;;;;;5015744;28;20037;-51
2021/01/16 08:58:13;;;;;;;2.25;2.00;;;18.10;38.10;;;;;;5015394;28;20034;-52
2021/01/16 09:00:39;;;;;;;2.75;2.40;;;18.10;38.10;;;;;;5014807;28;20459;-51
2021/01/16 09:03:17;;;;;;;2.42;2.17;;;18.10;38.10;;;;;;5015141;28;20045;-50
2021/01/16 09:05:45;;;;;;;2.28;2.05;;;18.10;38.10;;;;;;5014195;28;20030;-49
2021/01/16 09:08:22;;;;;;;2.65;2.22;;;18.10;38.10;;;;;;5014803;28;20484;-46
2021/01/16 09:10:48;;;;;;;2.50;2.28;;;18.10;38.10;;;;;;5014898;28;20042;-50
2021/01/16 09:13:24;;;;;;;2.88;2.00;;;18.10;38.20;;;;;;5015142;28;20030;-51
2021/01/16 09:15:50;;;;;;;2.72;2.45;;;18.10;38.20;;;;;;5015061;28;20045;-51
2021/01/16 09:18:16;;;;;;;2.28;1.88;;;18.10;38.20;;;;;;5015190;28;20096;-50
2021/01/16 09:21:05;;;;;;;2.22;1.90;;;18.10;38.20;;;;;;5014995;28;20037;-55
2021/01/16 09:23:35;;;;;;;2.85;2.35;;;18.10;38.10;;;;;;5014195;28;20041;-49
2021/01/16 09:26:04;;;;;;;2.58;2.33;;;18.10;38.20;;;;;;5014622;28;20049;-47
2021/01/16 09:28:55;;;;;;;2.75;2.28;;;18.00;38.10;;;;;;5014951;28;20049;-50
2021/01/16 09:31:43;;;;;;;2.70;2.30;;;18.00;38.10;;;;;;5014943;28;20042;-52
2021/01/16 09:34:14;;;;;;;3.35;2.38;;;18.00;38.20;;;;;;5018650;28;20463;-51
2021/01/16 09:36:56;;;;;;;4.53;2.50;;;18.00;38.20;;;;;;5018061;28;20052;-52
2021/01/16 09:39:25;;;;;;;4.28;2.90;;;18.00;38.40;;;;;;5018526;28;20080;-49
2021/01/16 09:41:56;;;;;;;7.90;3.28;;;18.00;38.90;;;;;;5018670;28;20022;-50
2021/01/16 09:44:40;;;;;;;3.00;2.53;;;18.00;39.10;;;;;;5018699;28;20037;-58
2021/01/16 09:47:25;;;;;;;3.85;2.17;;;18.00;39.20;;;;;;5018136;28;20062;-52
2021/01/16 09:50:01;;;;;;;2.60;2.20;;;18.00;39.20;;;;;;5018462;28;20037;-50
2021/01/16 09:52:27;;;;;;;3.97;2.38;;;18.00;39.40;;;;;;5018027;28;20038;-49
2021/01/16 09:54:54;;;;;;;1.95;1.85;;;18.00;39.70;;;;;;5017813;28;20038;-47
2021/01/16 09:57:33;;;;;;;7.82;2.78;;;18.00;39.90;;;;;;5018416;28;20044;-53
2021/01/16 10:00:26;;;;;;;3.85;2.35;;;18.10;40.10;;;;;;5018489;28;20030;-51
2021/01/16 10:03:05;;;;;;;4.88;2.33;;;18.10;40.10;;;;;;5018344;28;20048;-54
2021/01/16 10:05:33;;;;;;;3.45;2.20;;;18.20;40.20;;;;;;5018123;28;20042;-52
2021/01/16 10:08:00;;;;;;;5.90;2.22;;;18.20;40.30;;;;;;5018194;28;20050;-53
2021/01/16 10:10:27;;;;;;;3.30;2.30;;;18.30;40.40;;;;;;5017683;28;20360;-55
2021/01/16 10:12:59;;;;;;;2.40;2.20;;;18.30;40.30;;;;;;5018028;28;20045;-53
2021/01/16 10:15:27;;;;;;;2.97;2.20;;;18.40;40.40;;;;;;5017816;28;20041;-53
2021/01/16 10:17:56;;;;;;;2.30;2.00;;;18.40;40.30;;;;;;5017788;28;20448;-52
2021/01/16 10:20:32;;;;;;;3.97;2.08;;;18.50;40.30;;;;;;5018282;28;20034;-55
2021/01/16 10:23:00;;;;;;;17.42;4.50;;;18.50;40.30;;;;;;5018092;28;20368;-54
2021/01/16 10:25:41;;;;;;;14.82;3.90;;;18.60;40.40;;;;;;5018056;28;20038;-55
2021/01/16 10:28:11;;;;;;;11.52;4.60;;;18.60;40.40;;;;;;5017623;28;20042;-57
2021/01/16 10:30:50;;;;;;;21.77;4.63;;;18.70;40.50;;;;;;5017630;28;20045;-49
2021/01/16 10:33:20;;;;;;;17.38;4.82;;;18.70;40.50;;;;;;5017420;28;20046;-54
2021/01/16 10:35:50;;;;;;;15.95;4.80;;;18.80;40.30;;;;;;5017420;28;20042;-52
2021/01/16 10:38:39;;;;;;;23.33;4.40;;;18.90;40.40;;;;;;5017721;28;20049;-54
2021/01/16 10:41:07;;;;;;;13.18;4.47;;;19.00;40.20;;;;;;5017739;28;20026;-52
2021/01/16 10:43:34;;;;;;;10.35;4.30;;;19.00;40.10;;;;;;5017614;28;20045;-54
2021/01/16 10:46:06;;;;;;;10.80;3.83;;;19.00;40.30;;;;;;5016576;28;20476;-50
2021/01/16 10:48:37;;;;;;;13.43;4.55;;;19.00;40.80;;;;;;5017309;28;20622;-54
2021/01/16 10:51:05;;;;;;;12.23;4.45;;;19.10;42.50;;;;;;5017441;28;20096;-53
2021/01/16 10:53:38;;;;;;;13.90;4.43;;;19.10;45.50;;;;;;5017249;28;20072;-56
2021/01/16 10:56:15;;;;;;;7.28;3.35;;;19.20;46.10;;;;;;5017731;28;20026;-56
2021/01/16 10:58:41;;;;;;;10.07;3.55;;;19.20;46.90;;;;;;5016996;28;20116;-55
2021/01/16 11:01:09;;;;;;;14.43;3.53;;;19.30;47.60;;;;;;5016684;28;20112;-53
2021/01/16 11:03:35;;;;;;;7.75;3.25;;;19.30;47.80;;;;;;5016948;28;20030;-54
2021/01/16 11:06:09;;;;;;;7.93;3.83;;;19.40;47.90;;;;;;5016780;28;20038;-50
2021/01/16 11:08:39;;;;;;;11.63;4.20;;;19.40;48.00;;;;;;5017302;28;20045;-49
2021/01/16 11:11:28;;;;;;;11.52;3.92;;;19.50;48.10;;;;;;5017139;28;20096;-55
2021/01/16 11:13:54;;;;;;;8.27;3.47;;;19.50;47.90;;;;;;4999676;28;20088;-56
2021/01/16 11:16:22;;;;;;;10.88;3.42;;;19.50;47.70;;;;;;5016640;28;20403;-55
2021/01/16 11:18:49;;;;;;;11.60;3.72;;;19.60;47.60;;;;;;5016998;28;20033;-54
2021/01/16 11:21:56;;;;;;;6.78;3.75;;;19.60;47.40;;;;;;5015892;28;20092;-52
2021/01/16 11:24:50;;;;;;;7.22;3.55;;;19.70;47.40;;;;;;5006695;28;20045;-56
2021/01/16 11:27:17;;;;;;;8.80;3.70;;;19.70;47.20;;;;;;5016615;28;20073;-54
2021/01/16 11:29:44;;;;;;;6.72;3.13;;;19.70;47.10;;;;;;5016772;28;20053;-55
2021/01/16 11:32:18;;;;;;;6.32;3.05;;;19.80;47.10;;;;;;5016812;28;20033;-53
2021/01/16 11:35:12;;;;;;;7.07;3.85;;;19.90;47.10;;;;;;5016625;28;20053;-55
2021/01/16 11:37:54;;;;;;;9.30;4.13;;;19.90;46.90;;;;;;5016723;28;20042;-57
2021/01/16 11:40:28;;;;;;;6.50;3.60;;;19.90;46.80;;;;;;5016437;28;20045;-56
2021/01/16 11:43:08;;;;;;;6.43;3.50;;;19.90;46.60;;;;;;5016339;28;20109;-56
2021/01/16 11:45:34;;;;;;;7.38;4.22;;;19.90;46.50;;;;;;5015966;28;20034;-56
2021/01/16 11:48:01;;;;;;;11.82;4.70;;;20.00;46.40;;;;;;5016199;28;20100;-55
2021/01/16 11:50:29;;;;;;;8.90;4.03;;;20.00;46.20;;;;;;5016279;28;20338;-52
2021/01/16 11:52:55;;;;;;;7.40;3.95;;;20.00;46.10;;;;;;5016233;28;20375;-53
2021/01/16 11:55:20;;;;;;;6.90;3.30;;;20.00;45.90;;;;;;5015668;28;20045;-55
2021/01/16 11:57:47;;;;;;;5.82;3.78;;;20.00;45.70;;;;;;5016181;28;20057;-53
2021/01/16 12:00:17;;;;;;;6.40;3.40;;;20.10;45.70;;;;;;5015821;28;20465;-53
2021/01/16 12:02:51;;;;;;;6.13;2.90;;;20.10;45.50;;;;;;5016321;28;20057;-55
2021/01/16 12:05:19;;;;;;;7.03;3.28;;;20.10;45.40;;;;;;5016391;28;20356;-53
2021/01/16 12:07:48;;;;;;;6.78;3.97;;;20.10;45.20;;;;;;5015721;28;20034;-57
2021/01/16 12:10:17;;;;;;;6.10;4.03;;;20.10;45.00;;;;;;5015413;28;20404;-53
2021/01/16 12:12:43;;;;;;;12.50;5.20;;;20.20;44.90;;;;;;5015930;28;20420;-51
2021/01/16 12:15:19;;;;;;;9.48;5.28;;;20.20;44.60;;;;;;5015920;28;20087;-54
2021/01/16 12:17:46;;;;;;;9.73;6.68;;;20.20;44.20;;;;;;5016136;28;20065;-53
2021/01/16 12:20:16;;;;;;;10.43;6.55;;;20.20;43.30;;;;;;5015596;28;20034;-53
2021/01/16 12:22:43;;;;;;;11.57;5.68;;;20.10;41.50;;;;;;5015725;28;20045;-55
2021/01/16 12:25:13;;;;;;;8.30;4.97;;;20.10;42.80;;;;;;5015504;28;20112;-50
2021/01/16 12:27:47;;;;;;;11.55;4.93;;;20.10;43.20;;;;;;5015491;28;20041;-54
2021/01/16 12:30:13;;;;;;;9.43;5.35;;;20.10;43.40;;;;;;5015608;28;20330;-53
2021/01/16 12:32:41;;;;;;;8.82;4.97;;;20.10;43.40;;;;;;5015053;28;20437;-54
2021/01/16 12:35:07;;;;;;;7.88;4.90;;;20.10;43.40;;;;;;5015469;28;20057;-50
2021/01/16 12:37:35;;;;;;;6.80;4.22;;;20.10;43.40;;;;;;5015425;28;20121;-53
2021/01/16 12:40:25;;;;;;;6.03;4.00;;;20.10;43.60;;;;;;5015585;28;20034;-53
2021/01/16 12:42:51;;;;;;;8.05;4.70;;;20.10;43.60;;;;;;5015165;28;20404;-55
2021/01/16 12:45:24;;;;;;;6.50;4.78;;;20.20;43.50;;;;;;5015254;28;20044;-52
2021/01/16 12:47:57;;;;;;;9.50;4.65;;;20.20;43.20;;;;;;5015356;28;20349;-55
2021/01/16 12:50:24;;;;;;;6.72;4.25;;;20.20;43.00;;;;;;5015429;28;20038;-55
2021/01/16 12:52:53;;;;;;;9.10;4.70;;;20.10;42.70;;;;;;5014804;28;20061;-56
2021/01/16 12:55:21;;;;;;;8.88;3.97;;;20.20;42.70;;;;;;5015303;28;20073;-56
2021/01/16 12:57:49;;;;;;;6.22;4.35;;;20.20;42.70;;;;;;5015050;28;20034;-54
2021/01/16 13:00:16;;;;;;;6.18;4.28;;;20.20;42.20;;;;;;5015302;28;20428;-50